createdAt,value
2018-11-06T00:02:09.679Z,22.60
2018-11-06T00:06:51.051Z,24.13
2018-11-06T00:11:31.141Z,23.53
2018-11-06T00:16:13.182Z,25.83
2018-11-06T00:20:54.008Z,22.90
2018-11-06T00:25:34.113Z,23.87
2018-11-06T00:30:14.904Z,22.37
2018-11-06T00:34:56.820Z,24.03
2018-11-06T00:39:36.981Z,28.23
2018-11-06T00:44:17.852Z,24.97
2018-11-06T00:48:58.851Z,24.77
2018-11-06T00:53:40.133Z,26.90
2018-11-06T00:58:22.713Z,28.30
2018-11-06T01:03:04.411Z,28.27
2018-11-06T01:07:45.211Z,28.73
2018-11-06T01:12:26.027Z,27.57
2018-11-06T01:17:06.788Z,29.93
2018-11-06T01:21:47.195Z,29.20
2018-11-06T01:26:27.374Z,26.80
2018-11-06T01:31:07.734Z,25.47
2018-11-06T01:35:48.575Z,24.40
2018-11-06T01:40:29.037Z,22.27
2018-11-06T01:45:12.164Z,24.20
2018-11-06T01:49:53.067Z,24.87
2018-11-06T01:54:32.955Z,26.20
2018-11-06T01:59:13.546Z,27.27
2018-11-06T02:03:54.245Z,26.60
2018-11-06T02:08:34.115Z,26.70
2018-11-06T02:13:15.389Z,25.47
2018-11-06T02:17:56.605Z,25.73
2018-11-06T02:22:36.463Z,25.37
2018-11-06T02:27:16.917Z,24.53
2018-11-06T02:31:57.801Z,26.50
2018-11-06T02:36:38.337Z,26.73
2018-11-06T02:41:19.101Z,25.13
2018-11-06T02:45:59.908Z,24.47
2018-11-06T02:50:40.168Z,23.20
2018-11-06T02:55:20.543Z,22.87
2018-11-06T03:00:01.835Z,22.40
2018-11-06T03:04:42.503Z,24.33
2018-11-06T03:09:22.252Z,24.60
2018-11-06T03:14:03.295Z,24.30
2018-11-06T03:18:44.633Z,23.60
2018-11-06T03:23:25.252Z,22.73
2018-11-06T03:28:06.566Z,24.00
2018-11-06T03:32:49.304Z,23.87
2018-11-06T03:37:29.324Z,24.07
2018-11-06T03:42:09.998Z,23.03
2018-11-06T03:46:50.968Z,22.67
2018-11-06T03:51:31.278Z,24.10
2018-11-06T03:56:11.456Z,24.60
2018-11-06T04:00:51.513Z,23.67
2018-11-06T04:05:31.316Z,24.37
2018-11-06T04:10:12.214Z,25.67
2018-11-06T04:14:52.204Z,24.93
2018-11-06T04:19:33.316Z,28.13
2018-11-06T04:24:14.664Z,26.03
2018-11-06T04:28:54.587Z,23.47
2018-11-06T04:33:34.223Z,22.03
2018-11-06T04:38:14.373Z,22.10
2018-11-06T04:42:54.682Z,33.43
2018-11-06T04:47:34.518Z,29.10
2018-11-06T04:52:14.506Z,33.23
2018-11-06T04:56:54.489Z,30.53
2018-11-06T05:01:35.288Z,31.07
2018-11-06T05:06:16.160Z,30.73
2018-11-06T05:10:56.052Z,26.47
2018-11-06T05:15:36.168Z,28.07
2018-11-06T05:20:17.828Z,25.67
2018-11-06T05:24:58.378Z,28.53
2018-11-06T05:29:38.268Z,43.07
2018-11-06T05:34:18.311Z,40.97
2018-11-06T05:38:58.184Z,38.30
2018-11-06T05:43:38.787Z,36.50
2018-11-06T05:48:18.528Z,35.13
2018-11-06T05:52:58.536Z,27.67
2018-11-06T05:57:38.925Z,25.83
2018-11-06T06:02:18.833Z,27.53
2018-11-06T06:06:58.660Z,32.03
2018-11-06T06:11:39.249Z,27.57
2018-11-06T06:16:20.191Z,27.13
2018-11-06T06:20:59.887Z,25.83
2018-11-06T06:25:39.777Z,40.03
2018-11-06T06:30:21.130Z,33.83
2018-11-06T06:35:01.602Z,24.43
2018-11-06T06:39:41.505Z,28.73
2018-11-06T06:44:27.792Z,28.47
2018-11-06T06:49:08.070Z,34.10
2018-11-06T06:53:49.381Z,29.30
2018-11-06T06:58:29.333Z,29.87
2018-11-06T07:03:09.313Z,34.13
2018-11-06T07:07:49.165Z,30.47
2018-11-06T07:12:29.005Z,29.20
2018-11-06T07:17:09.920Z,24.60
2018-11-06T07:21:49.940Z,26.30
2018-11-06T07:26:29.761Z,27.47
2018-11-06T07:31:09.751Z,27.70
2018-11-06T07:35:50.005Z,27.43
2018-11-06T07:40:29.902Z,29.27
2018-11-06T07:45:13.123Z,29.47
2018-11-06T07:49:54.010Z,30.27
2018-11-06T07:54:34.061Z,31.83
2018-11-06T07:59:15.445Z,30.83
2018-11-06T08:03:57.288Z,27.57
2018-11-06T08:08:37.341Z,22.97
2018-11-06T08:13:17.912Z,23.00
2018-11-06T08:17:58.662Z,21.10
2018-11-06T08:22:40.525Z,23.97
2018-11-06T08:27:21.065Z,32.65
2018-11-06T08:32:03.302Z,23.57
2018-11-06T08:36:43.038Z,22.87
2018-11-06T08:41:23.617Z,23.07
2018-11-06T08:46:05.053Z,20.32
2018-11-06T08:50:44.954Z,22.80
2018-11-06T08:55:25.182Z,19.75
2018-11-06T09:00:07.209Z,19.17
2018-11-06T09:04:47.755Z,19.52
2018-11-06T09:09:27.854Z,19.00
2018-11-06T09:14:08.013Z,17.73
2018-11-06T09:18:47.908Z,17.23
2018-11-06T09:23:27.837Z,18.98
2018-11-06T09:28:07.807Z,17.80
2018-11-06T09:32:47.640Z,17.65
2018-11-06T09:37:28.952Z,17.52
2018-11-06T09:42:09.431Z,17.45
2018-11-06T09:46:51.423Z,19.65
2018-11-06T09:51:31.796Z,17.50
2018-11-06T09:56:14.306Z,18.32
2018-11-06T10:00:55.396Z,19.77
2018-11-06T10:05:35.368Z,19.02
2018-11-06T10:10:17.084Z,19.05
2018-11-06T10:14:56.930Z,23.25
2018-11-06T10:19:37.131Z,20.77
2018-11-06T10:24:18.314Z,46.28
2018-11-06T10:28:58.532Z,188.93
2018-11-06T10:33:39.392Z,36.00
2018-11-06T10:38:19.651Z,21.07
2018-11-06T10:42:59.628Z,18.45
2018-11-06T10:47:40.136Z,18.62
2018-11-06T10:52:20.700Z,19.92
2018-11-06T10:57:00.540Z,20.68
2018-11-06T11:01:46.566Z,17.30
2018-11-06T11:06:26.732Z,17.77
2018-11-06T11:11:07.519Z,18.70
2018-11-06T11:15:47.677Z,18.70
2018-11-06T11:20:27.964Z,19.73
2018-11-06T11:25:09.532Z,18.37
2018-11-06T11:29:50.241Z,18.02
2018-11-06T11:34:30.231Z,17.02
2018-11-06T11:39:10.479Z,16.70
2018-11-06T11:43:50.244Z,12.35
2018-11-06T11:48:30.110Z,11.08
2018-11-06T11:53:10.028Z,10.63
2018-11-06T11:57:50.034Z,11.45
2018-11-06T12:02:29.904Z,12.00
2018-11-06T12:07:09.730Z,14.35
2018-11-06T12:11:49.829Z,11.90
2018-11-06T12:16:30.569Z,11.40
2018-11-06T12:21:11.841Z,11.78
2018-11-06T12:25:52.483Z,11.57
2018-11-06T12:30:32.975Z,11.12
2018-11-06T12:35:14.268Z,10.93
2018-11-06T12:39:54.320Z,10.93
2018-11-06T12:44:35.116Z,10.98
2018-11-06T12:49:15.741Z,10.60
2018-11-06T12:53:55.853Z,11.90
2018-11-06T12:58:35.512Z,11.03
2018-11-06T13:03:15.403Z,11.53
2018-11-06T13:07:56.073Z,13.48
2018-11-06T13:12:36.092Z,11.83
2018-11-06T13:17:17.137Z,10.95
2018-11-06T13:21:58.719Z,10.35
2018-11-06T13:26:39.377Z,11.43
2018-11-06T13:31:19.257Z,12.55
2018-11-06T13:36:00.040Z,9.93
2018-11-06T13:40:40.006Z,10.93
2018-11-06T13:45:21.918Z,10.85
2018-11-06T13:50:01.901Z,11.60
2018-11-06T13:54:43.372Z,12.15
2018-11-06T13:59:23.720Z,13.38
2018-11-06T14:04:04.170Z,13.85
2018-11-06T14:08:44.700Z,15.85
2018-11-06T14:13:25.099Z,15.38
2018-11-06T14:18:05.259Z,16.80
2018-11-06T14:22:46.104Z,15.98
2018-11-06T14:27:26.156Z,16.50
2018-11-06T14:32:06.988Z,16.42
2018-11-06T14:36:47.793Z,14.85
2018-11-06T14:41:27.685Z,15.15
2018-11-06T14:46:08.642Z,16.07
2018-11-06T14:50:49.592Z,13.83
2018-11-06T14:55:32.127Z,13.88
2018-11-06T15:00:18.073Z,14.65
2018-11-06T15:04:58.524Z,14.75
2018-11-06T15:09:38.612Z,17.37
2018-11-06T15:14:19.145Z,17.17
2018-11-06T15:19:00.145Z,17.87
2018-11-06T15:23:40.264Z,18.15
2018-11-06T15:28:22.661Z,19.12
2018-11-06T15:33:03.057Z,19.60
2018-11-06T15:37:43.661Z,19.45
2018-11-06T15:42:23.686Z,20.68
2018-11-06T15:47:04.371Z,20.92
2018-11-06T15:51:44.296Z,18.57
2018-11-06T15:56:24.995Z,20.37
2018-11-06T16:01:05.039Z,20.43
2018-11-06T16:05:45.288Z,20.70
2018-11-06T16:10:25.255Z,20.60
2018-11-06T16:15:06.758Z,20.00
2018-11-06T16:19:46.761Z,20.32
2018-11-06T16:24:28.381Z,20.80
2018-11-06T16:29:08.333Z,20.08
2018-11-06T16:33:49.020Z,20.77
2018-11-06T16:38:29.210Z,20.52
2018-11-06T16:43:10.300Z,21.40
2018-11-06T16:47:51.305Z,21.40
2018-11-06T16:52:33.217Z,22.15
2018-11-06T16:57:13.165Z,21.55
2018-11-06T17:01:53.297Z,21.15
2018-11-06T17:06:38.489Z,21.68
2018-11-06T17:11:18.507Z,23.32
2018-11-06T17:15:58.448Z,24.07
2018-11-06T17:20:38.619Z,23.80
2018-11-06T17:25:19.704Z,24.52
2018-11-06T17:30:00.450Z,24.15
2018-11-06T17:34:40.488Z,23.83
2018-11-06T17:39:21.782Z,25.40
2018-11-06T17:44:01.821Z,24.95
2018-11-06T17:48:41.805Z,25.45
2018-11-06T17:53:21.910Z,26.65
2018-11-06T17:58:01.639Z,30.65
2018-11-06T18:02:41.640Z,30.95
2018-11-06T18:07:21.429Z,28.40
2018-11-06T18:12:01.980Z,27.25
2018-11-06T18:16:42.300Z,26.93
2018-11-06T18:21:21.945Z,34.60
2018-11-06T18:26:02.096Z,47.30
2018-11-06T18:30:41.937Z,45.17
2018-11-06T18:35:22.089Z,39.27
2018-11-06T18:40:02.594Z,31.23
2018-11-06T18:44:43.337Z,31.60
2018-11-06T18:49:23.100Z,42.98
2018-11-06T18:54:03.196Z,43.23
2018-11-06T18:58:43.990Z,49.42
2018-11-06T19:03:24.125Z,47.67
2018-11-06T19:08:03.896Z,37.95
2018-11-06T19:12:44.195Z,37.75
2018-11-06T19:17:25.151Z,34.78
2018-11-06T19:22:07.107Z,39.88
2018-11-06T19:26:47.448Z,32.93
2018-11-06T19:31:27.719Z,31.05
2018-11-06T19:36:07.676Z,31.17
2018-11-06T19:40:47.569Z,31.90
2018-11-06T19:45:27.669Z,30.15
2018-11-06T19:50:09.608Z,28.95
2018-11-06T19:54:49.884Z,27.77
2018-11-06T19:59:30.103Z,28.12
2018-11-06T20:04:10.362Z,28.42
2018-11-06T20:08:50.154Z,29.70
2018-11-06T20:13:30.481Z,41.53
2018-11-06T20:18:10.588Z,49.03
2018-11-06T20:22:50.543Z,52.05
2018-11-06T20:27:30.601Z,47.05
2018-11-06T20:32:10.305Z,35.38
2018-11-06T20:36:50.513Z,22.77
2018-11-06T20:41:30.940Z,14.45
2018-11-06T20:46:11.718Z,17.92
2018-11-06T20:50:52.189Z,8.63
2018-11-06T20:55:32.532Z,6.70
2018-11-06T21:00:18.399Z,5.55
2018-11-06T21:04:59.146Z,4.75
2018-11-06T21:09:39.489Z,3.87
2018-11-06T21:14:20.066Z,3.30
2018-11-06T21:19:00.029Z,3.00
2018-11-06T21:23:41.644Z,3.83
2018-11-06T21:28:22.568Z,3.40
2018-11-06T21:33:04.133Z,2.35
2018-11-06T21:37:44.690Z,3.50
2018-11-06T21:42:25.156Z,2.80
2018-11-06T21:47:05.836Z,3.08
2018-11-06T21:51:46.605Z,2.30
2018-11-06T21:56:28.517Z,2.42
2018-11-06T22:01:09.585Z,2.20
2018-11-06T22:05:49.460Z,2.80
2018-11-06T22:10:30.462Z,2.90
2018-11-06T22:15:12.988Z,2.27
2018-11-06T22:19:53.059Z,2.10
2018-11-06T22:24:34.449Z,2.42
2018-11-06T22:29:14.637Z,3.98
2018-11-06T22:33:54.618Z,2.75
2018-11-06T22:38:35.178Z,3.80
2018-11-06T22:43:15.300Z,2.20
2018-11-06T22:47:55.296Z,2.80
2018-11-06T22:52:35.476Z,2.22
2018-11-06T22:57:15.553Z,2.20
2018-11-06T23:01:55.888Z,1.65
2018-11-06T23:06:35.999Z,2.00
2018-11-06T23:11:15.892Z,3.15
2018-11-06T23:15:56.430Z,3.98
2018-11-06T23:20:36.419Z,3.52
2018-11-06T23:25:16.173Z,3.35
2018-11-06T23:29:56.621Z,3.33
2018-11-06T23:34:36.590Z,3.60
2018-11-06T23:39:16.457Z,2.75
2018-11-06T23:43:56.697Z,2.60
2018-11-06T23:48:36.572Z,2.60
2018-11-06T23:53:16.715Z,2.70
2018-11-06T23:57:57.460Z,2.20
